Time;durP1;ratioP1;P1;durP2;ratioP2;P2;SDS_P1;SDS_P2;PMS_P1;PMS_P2;Temp;Humidity;BMP_temperature;BMP_pressure;BME280_temperature;BME280_humidity;BME280_pressure;Samples;Min_cycle;Max_cycle;Signal;HPM_P1;HPM_P2
2023/05/04 00:00:10;;;;;;;11.30;6.88;;;;;;;8.36;62.13;102724.47;7396795;19;20105;-61
2023/05/04 00:02:37;;;;;;;11.85;6.18;;;;;;;8.36;62.23;102720.97;7395467;19;20015;-60
2023/05/04 00:05:05;;;;;;;12.18;6.88;;;;;;;8.34;62.23;102720.13;7394039;19;20567;-61
2023/05/04 00:07:32;;;;;;;11.27;6.20;;;;;;;8.30;62.05;102712.31;7397257;19;20093;-61
2023/05/04 00:10:00;;;;;;;11.10;6.40;;;;;;;8.23;62.52;102716.06;7394400;19;20015;-61
2023/05/04 00:12:27;;;;;;;11.80;6.53;;;;;;;8.28;62.56;102718.56;7395630;19;20014;-61
2023/05/04 00:14:54;;;;;;;12.82;6.70;;;;;;;8.21;62.49;102712.63;7392500;19;20026;-61
2023/05/04 00:17:21;;;;;;;14.10;6.88;;;;;;;8.19;62.70;102714.44;7395534;19;20014;-61
2023/05/04 00:19:49;;;;;;;12.18;6.95;;;;;;;8.23;62.80;102702.84;7395950;19;20018;-61
2023/05/04 00:22:16;;;;;;;12.02;7.03;;;;;;;8.20;62.83;102702.09;7396567;19;20015;-61
2023/05/04 00:24:43;;;;;;;15.50;7.20;;;;;;;8.17;62.92;102696.94;7394336;19;20015;-60
2023/05/04 00:27:10;;;;;;;13.90;7.25;;;;;;;8.09;62.84;102689.28;7396095;19;20514;-60
2023/05/04 00:29:37;;;;;;;11.45;6.80;;;;;;;8.15;63.02;102693.47;7396342;19;20026;-61
2023/05/04 00:32:05;;;;;;;13.50;6.93;;;;;;;8.19;62.57;102692.47;7395450;19;20178;-61
2023/05/04 00:34:35;;;;;;;13.02;6.82;;;;;;;8.08;63.03;102692.81;7394368;19;20029;-61
2023/05/04 00:37:02;;;;;;;13.88;7.10;;;;;;;8.03;63.05;102687.69;7395083;19;20039;-61
2023/05/04 00:39:29;;;;;;;12.23;7.10;;;;;;;8.13;62.92;102684.72;7395849;19;20006;-61
2023/05/04 00:41:56;;;;;;;14.02;7.18;;;;;;;8.07;63.12;102691.94;7395502;19;20026;-61
2023/05/04 00:44:23;;;;;;;12.00;7.28;;;;;;;8.09;63.15;102683.09;7394975;19;20491;-61
2023/05/04 00:46:54;;;;;;;12.63;7.07;;;;;;;8.05;63.22;102692.88;7395602;19;20033;-61
2023/05/04 00:49:21;;;;;;;11.73;7.00;;;;;;;8.07;63.14;102686.66;7395292;19;20014;-62
2023/05/04 00:51:50;;;;;;;13.38;6.90;;;;;;;8.02;63.07;102682.47;7393779;19;20022;-61
2023/05/04 00:54:18;;;;;;;13.10;7.20;;;;;;;7.98;63.23;102679.06;7394230;19;20025;-61
2023/05/04 00:56:46;;;;;;;14.57;6.75;;;;;;;7.94;63.34;102680.06;7394670;19;20055;-61
2023/05/04 00:59:13;;;;;;;12.15;6.75;;;;;;;7.86;63.80;102678.56;7394213;19;20018;-61
2023/05/04 01:01:41;;;;;;;12.57;6.82;;;;;;;7.83;64.00;102684.81;7393848;19;20022;-61
2023/05/04 01:04:08;;;;;;;12.75;7.13;;;;;;;7.86;63.84;102676.81;7392503;19;20028;-60
2023/05/04 01:06:51;;;;;;;12.95;7.10;;;;;;;7.93;63.44;102673.03;7391557;19;20043;-60
2023/05/04 01:09:38;;;;;;;13.07;7.10;;;;;;;7.88;63.68;102676.75;7393643;19;20047;-61
2023/05/04 01:12:10;;;;;;;12.07;6.72;;;;;;;7.86;63.85;102671.53;7392554;19;20122;-60
2023/05/04 01:14:38;;;;;;;13.57;7.18;;;;;;;7.78;64.03;102666.50;7392578;19;20027;-61
2023/05/04 01:17:07;;;;;;;12.45;6.95;;;;;;;7.77;64.17;102669.16;7393864;19;20026;-60
2023/05/04 01:19:34;;;;;;;12.00;6.65;;;;;;;7.75;64.13;102663.94;7393584;19;20039;-61
2023/05/04 01:22:01;;;;;;;14.57;6.80;;;;;;;7.80;63.85;102669.06;7394851;19;20023;-61
2023/05/04 01:24:30;;;;;;;11.98;6.50;;;;;;;7.77;64.02;102664.75;7392755;19;20018;-60
2023/05/04 01:27:07;;;;;;;12.02;7.20;;;;;;;7.81;63.89;102658.47;7394582;19;20011;-61
2023/05/04 01:29:41;;;;;;;11.85;6.95;;;;;;;7.78;63.86;102668.25;7393403;19;20085;-61
2023/05/04 01:32:10;;;;;;;12.77;7.13;;;;;;;7.76;64.04;102667.44;7393981;19;20014;-61
2023/05/04 01:34:39;;;;;;;11.80;6.55;;;;;;;7.67;64.41;102657.16;7392093;19;20019;-61
2023/05/04 01:37:07;;;;;;;14.20;6.80;;;;;;;7.60;64.60;102663.56;7393082;19;20018;-61
2023/05/04 01:39:34;;;;;;;13.32;6.65;;;;;;;7.73;64.07;102662.25;7393704;19;20025;-62
2023/05/04 01:42:01;;;;;;;10.70;6.68;;;;;;;7.71;64.17;102662.31;7393752;19;20019;-61
2023/05/04 01:44:28;;;;;;;11.75;6.82;;;;;;;7.75;63.90;102660.47;7392548;19;20022;-61
2023/05/04 01:46:55;;;;;;;14.20;6.82;;;;;;;7.71;63.92;102658.81;7393753;19;20020;-61
2023/05/04 01:49:22;;;;;;;13.50;7.28;;;;;;;7.76;64.19;102657.75;7393183;19;20022;-61
2023/05/04 01:51:49;;;;;;;11.15;6.75;;;;;;;7.81;63.96;102647.06;7393673;19;20035;-61
2023/05/04 01:54:16;;;;;;;12.75;6.35;;;;;;;7.69;64.03;102655.38;7390563;19;20022;-62
2023/05/04 01:56:43;;;;;;;11.77;6.80;;;;;;;7.68;64.27;102658.91;7392447;19;20047;-62
2023/05/04 01:59:10;;;;;;;12.35;6.53;;;;;;;7.72;63.81;102660.53;7391460;19;20018;-61
2023/05/04 02:01:37;;;;;;;11.88;6.72;;;;;;;7.69;64.00;102658.84;7392700;19;20018;-60
2023/05/04 02:04:04;;;;;;;9.30;6.10;;;;;;;7.54;64.47;102654.91;7390233;19;20026;-61
2023/05/04 02:06:32;;;;;;;12.10;6.80;;;;;;;7.49;64.63;102655.97;7392297;19;20014;-61
2023/05/04 02:08:59;;;;;;;12.93;6.47;;;;;;;7.57;64.81;102652.19;7392491;19;20014;-60
2023/05/04 02:11:26;;;;;;;12.65;6.50;;;;;;;7.56;64.56;102650.47;7392913;19;20039;-60
2023/05/04 02:13:53;;;;;;;10.93;6.47;;;;;;;7.59;64.64;102646.84;7393005;19;20034;-60
2023/05/04 02:16:20;;;;;;;14.82;7.70;;;;;;;7.56;64.51;102644.34;7392288;19;20014;-60
2023/05/04 02:18:47;;;;;;;11.13;6.60;;;;;;;7.46;64.69;102641.09;7390871;19;20042;-60
2023/05/04 02:21:14;;;;;;;12.88;7.07;;;;;;;7.47;64.89;102636.69;7392171;19;20022;-61
2023/05/04 02:23:41;;;;;;;11.48;7.10;;;;;;;7.44;65.16;102642.06;7392387;19;20018;-61
2023/05/04 02:26:08;;;;;;;14.07;8.15;;;;;;;7.43;65.03;102633.28;7392180;19;20029;-61
2023/05/04 02:28:35;;;;;;;13.75;8.43;;;;;;;7.51;65.16;102631.28;7391396;19;20042;-60
2023/05/04 02:31:02;;;;;;;13.35;8.48;;;;;;;7.49;65.15;102626.97;7390591;19;20018;-61
2023/05/04 02:33:29;;;;;;;14.52;9.10;;;;;;;7.47;65.28;102632.28;7391223;19;20015;-61
2023/05/04 02:35:56;;;;;;;12.68;8.60;;;;;;;7.33;65.46;102635.34;7391549;19;20018;-61
2023/05/04 02:38:25;;;;;;;13.90;8.35;;;;;;;7.36;65.86;102630.88;7389640;19;20043;-61
2023/05/04 02:40:52;;;;;;;12.65;7.75;;;;;;;7.30;65.61;102626.66;7391881;19;20015;-61
2023/05/04 02:43:18;;;;;;;12.98;7.43;;;;;;;7.28;65.75;102625.84;7389603;19;20026;-60
2023/05/04 02:45:45;;;;;;;12.80;7.47;;;;;;;7.21;66.08;102616.38;7389261;19;20022;-60
2023/05/04 02:48:12;;;;;;;12.30;7.40;;;;;;;7.20;65.88;102612.88;7391534;19;20014;-60
2023/05/04 02:50:39;;;;;;;13.35;7.05;;;;;;;7.20;65.94;102617.31;7392004;19;20064;-60
2023/05/04 02:53:07;;;;;;;12.25;7.35;;;;;;;7.21;66.04;102621.66;7391419;19;20020;-60
2023/05/04 02:55:34;;;;;;;13.73;7.63;;;;;;;7.16;66.12;102615.66;7389911;19;20022;-60
2023/05/04 02:58:01;;;;;;;11.65;7.28;;;;;;;7.28;65.75;102615.28;7390101;19;20025;-60
2023/05/04 03:00:28;;;;;;;10.73;6.90;;;;;;;7.21;65.78;102609.38;7390818;19;20127;-61
2023/05/04 03:02:55;;;;;;;12.18;7.20;;;;;;;7.12;66.05;102612.25;7389711;19;20014;-60
2023/05/04 03:05:22;;;;;;;12.38;7.40;;;;;;;7.06;66.48;102608.03;7388919;19;20018;-60
2023/05/04 03:07:49;;;;;;;14.13;7.60;;;;;;;7.15;66.42;102608.69;7391237;19;20491;-61
2023/05/04 03:10:17;;;;;;;14.38;7.50;;;;;;;7.17;66.25;102606.84;7390121;19;20014;-61
2023/05/04 03:12:44;;;;;;;14.52;7.70;;;;;;;7.14;66.30;102613.09;7390705;19;20491;-61
2023/05/04 03:15:11;;;;;;;12.77;7.32;;;;;;;7.12;66.06;102606.13;7386542;19;20355;-61
2023/05/04 03:17:38;;;;;;;13.57;7.47;;;;;;;7.04;66.28;102603.72;7390583;19;20022;-61
2023/05/04 03:20:06;;;;;;;14.85;7.28;;;;;;;6.99;66.68;102611.75;7390245;19;20022;-61
2023/05/04 03:22:34;;;;;;;14.50;7.80;;;;;;;7.02;66.84;102610.78;7390731;19;20023;-61
2023/05/04 03:25:01;;;;;;;13.48;7.65;;;;;;;6.91;67.24;102603.22;7388830;19;20018;-61
2023/05/04 03:27:28;;;;;;;14.00;8.05;;;;;;;7.03;66.43;102609.91;7391097;19;20022;-60
2023/05/04 03:29:55;;;;;;;15.13;7.82;;;;;;;7.11;66.49;102607.91;7389204;19;20059;-60
2023/05/04 03:32:22;;;;;;;13.20;7.68;;;;;;;6.99;66.74;102603.84;7390085;19;20011;-60
2023/05/04 03:34:49;;;;;;;13.23;7.53;;;;;;;6.81;67.47;102607.88;7387279;19;20014;-60
2023/05/04 03:37:16;;;;;;;14.60;8.02;;;;;;;6.88;67.43;102605.94;7387997;19;20519;-60
2023/05/04 03:39:43;;;;;;;15.57;7.97;;;;;;;6.97;66.66;102595.13;7388104;19;20126;-61
2023/05/04 03:42:10;;;;;;;13.25;7.68;;;;;;;6.96;66.96;102588.13;7390118;19;20011;-61
2023/05/04 03:44:37;;;;;;;14.85;8.00;;;;;;;6.91;67.04;102591.84;7389434;19;20022;-61
2023/05/04 03:47:04;;;;;;;15.95;8.10;;;;;;;6.95;67.08;102588.19;7390502;19;20150;-61
2023/05/04 03:49:32;;;;;;;14.38;7.55;;;;;;;6.97;66.68;102584.59;7389587;19;20026;-62
2023/05/04 03:51:59;;;;;;;13.32;7.57;;;;;;;6.97;66.68;102589.84;7389365;19;20022;-60
2023/05/04 03:54:26;;;;;;;15.75;8.00;;;;;;;6.90;67.08;102592.72;7387559;19;20018;-59
2023/05/04 03:56:53;;;;;;;14.23;8.40;;;;;;;6.91;66.95;102589.19;7387578;19;20035;-60
2023/05/04 03:59:20;;;;;;;13.05;7.63;;;;;;;6.90;67.13;102583.03;7387200;19;20017;-60
2023/05/04 04:01:47;;;;;;;15.82;7.43;;;;;;;7.00;66.71;102570.47;7387997;19;20022;-61
2023/05/04 04:04:14;;;;;;;12.65;7.78;;;;;;;6.95;66.70;102578.53;7388679;19;20030;-60
2023/05/04 04:06:41;;;;;;;13.00;7.30;;;;;;;6.92;67.01;102577.75;7389628;19;20039;-61
2023/05/04 04:09:09;;;;;;;14.45;7.75;;;;;;;6.96;67.15;102569.69;7389216;19;20031;-61
2023/05/04 04:11:36;;;;;;;12.57;7.45;;;;;;;6.96;66.74;102576.75;7389347;19;20452;-60
2023/05/04 04:14:03;;;;;;;14.00;7.75;;;;;;;7.01;67.26;102572.19;7388770;19;20033;-59
2023/05/04 04:16:30;;;;;;;13.65;6.95;;;;;;;7.00;66.90;102570.47;7389283;19;20018;-60
2023/05/04 04:18:57;;;;;;;13.13;7.18;;;;;;;7.12;66.75;102575.38;7387071;19;20026;-60
2023/05/04 04:21:24;;;;;;;12.55;7.78;;;;;;;7.17;66.44;102570.81;7389241;19;20043;-60
2023/05/04 04:23:51;;;;;;;12.80;7.60;;;;;;;7.12;66.71;102572.75;7386817;19;20027;-60
2023/05/04 04:26:19;;;;;;;13.80;7.88;;;;;;;7.27;66.21;102574.06;7391767;19;20015;-59
2023/05/04 04:28:49;;;;;;;12.77;7.28;;;;;;;7.23;66.30;102569.78;7393945;19;20023;-59
2023/05/04 04:31:17;;;;;;;14.10;7.75;;;;;;;7.18;66.55;102577.84;7396636;19;20039;-60
2023/05/04 04:33:46;;;;;;;14.77;7.55;;;;;;;7.19;66.54;102583.97;7395938;19;20022;-60
2023/05/04 04:36:15;;;;;;;13.13;7.82;;;;;;;7.27;66.39;102588.09;7396973;19;20022;-60
2023/05/04 04:38:43;;;;;;;12.30;7.20;;;;;;;7.32;66.21;102583.53;7393981;19;20361;-61
2023/05/04 04:41:10;;;;;;;13.23;6.93;;;;;;;7.27;65.99;102588.09;7393785;19;20022;-60
2023/05/04 04:43:37;;;;;;;15.68;7.63;;;;;;;7.23;66.71;102588.22;7394129;19;20361;-61
2023/05/04 04:46:04;;;;;;;13.52;7.47;;;;;;;7.22;66.48;102589.16;7394333;19;20039;-60
2023/05/04 04:48:31;;;;;;;13.20;7.22;;;;;;;7.26;66.61;102580.25;7393958;19;20024;-60
2023/05/04 04:50:58;;;;;;;13.18;6.22;;;;;;;7.33;66.59;102585.28;7395641;19;20014;-60
2023/05/04 04:53:25;;;;;;;12.02;6.55;;;;;;;7.34;66.49;102586.13;7393975;19;20021;-61
2023/05/04 04:55:53;;;;;;;12.10;6.13;;;;;;;7.47;66.16;102589.25;7394890;19;20411;-61
2023/05/04 04:58:20;;;;;;;13.02;6.25;;;;;;;7.53;65.73;102592.56;7394377;19;20425;-61
2023/05/04 05:00:47;;;;;;;13.40;6.18;;;;;;;7.61;66.12;102594.97;7395303;19;20479;-61
2023/05/04 05:03:15;;;;;;;11.38;5.95;;;;;;;7.53;65.79;102589.94;7395374;19;20030;-61
2023/05/04 05:05:42;;;;;;;13.55;6.50;;;;;;;7.65;65.69;102590.44;7392573;19;20081;-61
2023/05/04 05:08:09;;;;;;;11.27;6.15;;;;;;;7.74;65.66;102587.50;7395340;19;20057;-61
2023/05/04 05:10:36;;;;;;;11.45;5.95;;;;;;;7.78;65.64;102597.94;7395118;19;20396;-61
2023/05/04 05:13:03;;;;;;;9.85;5.60;;;;;;;7.84;65.66;102601.28;7394332;19;20043;-61
2023/05/04 05:15:30;;;;;;;11.88;5.43;;;;;;;7.82;65.99;102603.94;7392457;19;20025;-61
2023/05/04 05:17:57;;;;;;;13.25;5.82;;;;;;;7.76;66.00;102594.47;7394309;19;20014;-61
2023/05/04 05:20:25;;;;;;;10.45;5.22;;;;;;;7.85;66.06;102598.56;7394568;19;20041;-61
2023/05/04 05:22:52;;;;;;;11.68;5.00;;;;;;;7.91;nan;102600.16;7394077;19;20027;-61
2023/05/04 05:25:19;;;;;;;13.27;5.50;;;;;;;8.13;65.25;102600.28;7392295;19;20018;-62
2023/05/04 05:27:46;;;;;;;12.55;5.40;;;;;;;8.11;65.34;102597.72;7394002;19;20019;-62
2023/05/04 05:30:13;;;;;;;11.27;5.18;;;;;;;8.30;65.11;102597.94;7393705;19;20030;-62
2023/05/04 05:32:40;;;;;;;11.15;5.43;;;;;;;8.46;64.45;102598.31;7392778;19;20017;-61
2023/05/04 05:35:08;;;;;;;12.90;5.22;;;;;;;8.54;64.07;102596.25;7390199;19;20057;-61
2023/05/04 05:37:35;;;;;;;10.48;5.10;;;;;;;8.62;63.86;102603.91;7393930;19;20073;-61
2023/05/04 05:40:05;;;;;;;11.20;5.13;;;;;;;8.58;64.30;102602.28;7393468;19;20018;-60
2023/05/04 05:42:32;;;;;;;11.18;5.00;;;;;;;8.60;64.43;102596.06;7394787;19;20054;-60
2023/05/04 05:45:00;;;;;;;11.10;4.85;;;;;;;8.64;64.38;102589.75;7392070;19;20039;-61
2023/05/04 05:47:27;;;;;;;11.30;4.78;;;;;;;8.75;64.11;102592.84;7395942;19;20007;-61
2023/05/04 05:49:55;;;;;;;12.32;4.90;;;;;;;8.79;63.79;102596.25;7395108;19;20011;-61
2023/05/04 05:52:22;;;;;;;8.68;4.43;;;;;;;8.89;63.69;102596.75;7393764;19;20539;-62
2023/05/04 05:54:49;;;;;;;9.85;4.30;;;;;;;8.91;63.75;102598.44;7392699;19;20014;-61
2023/05/04 05:57:16;;;;;;;10.07;4.20;;;;;;;8.99;63.69;102592.88;7395129;19;20094;-60
2023/05/04 05:59:43;;;;;;;8.93;4.18;;;;;;;9.01;63.61;102597.19;7393043;19;20090;-61
2023/05/04 06:02:13;;;;;;;7.90;4.15;;;;;;;9.03;63.93;102589.19;7395332;19;20018;-61
2023/05/04 06:04:41;;;;;;;9.82;4.22;;;;;;;9.04;64.07;102590.91;7394320;19;20520;-62
2023/05/04 06:07:08;;;;;;;11.13;4.22;;;;;;;9.08;64.15;102584.59;7395633;19;20029;-61
2023/05/04 06:09:35;;;;;;;11.20;4.10;;;;;;;9.19;63.91;102589.47;7392151;19;20078;-61
2023/05/04 06:12:05;;;;;;;10.52;3.95;;;;;;;9.26;63.89;102589.16;7391559;19;20018;-61
2023/05/04 06:14:32;;;;;;;11.52;3.85;;;;;;;9.35;63.62;102590.63;7392687;19;20092;-61
2023/05/04 06:16:59;;;;;;;9.52;3.88;;;;;;;9.36;64.09;102583.53;7392531;19;20383;-60
2023/05/04 06:19:26;;;;;;;10.40;4.07;;;;;;;9.49;64.01;102582.97;7391575;19;20043;-63
2023/05/04 06:21:56;;;;;;;9.85;3.70;;;;;;;9.52;63.91;102585.50;7392471;19;20018;-61
2023/05/04 06:24:24;;;;;;;13.77;4.00;;;;;;;9.66;63.32;102577.03;7391825;19;20035;-60
2023/05/04 06:26:50;;;;;;;11.70;4.30;;;;;;;9.83;62.44;102578.97;7391983;19;20023;-60
2023/05/04 06:29:17;;;;;;;13.05;4.22;;;;;;;9.83;62.38;102581.63;7390267;19;20043;-60
2023/05/04 06:31:46;;;;;;;17.15;7.75;;;;;;;9.95;61.98;102567.88;7392258;19;20014;-60
2023/05/04 06:34:17;;;;;;;13.25;5.93;;;;;;;10.05;61.55;102570.16;7392083;19;20039;-60
2023/05/04 06:36:44;;;;;;;13.50;4.20;;;;;;;10.19;61.79;102567.78;7392457;19;20018;-61
2023/05/04 06:39:11;;;;;;;9.32;3.72;;;;;;;10.31;61.13;102559.34;7390572;19;20487;-61
2023/05/04 06:41:38;;;;;;;13.65;3.97;;;;;;;10.29;61.03;102560.31;7389877;19;20024;-59
2023/05/04 06:44:06;;;;;;;11.43;3.83;;;;;;;10.36;61.12;102554.69;7389797;19;20029;-59
2023/05/04 06:46:36;;;;;;;10.20;3.50;;;;;;;10.48;61.19;102548.84;7389468;19;20023;-58
2023/05/04 06:49:03;;;;;;;10.02;3.28;;;;;;;10.55;60.51;102556.53;7390523;19;20054;-59
2023/05/04 06:51:30;;;;;;;12.35;3.40;;;;;;;10.57;60.35;102552.00;7391715;19;20487;-59
2023/05/04 06:53:59;;;;;;;10.63;3.20;;;;;;;10.56;60.64;102552.94;7391537;19;20010;-58
2023/05/04 06:56:26;;;;;;;10.18;3.60;;;;;;;10.57;60.79;102546.72;7389101;19;20018;-58
2023/05/04 06:58:53;;;;;;;8.98;3.22;;;;;;;10.65;60.32;102558.72;7391252;19;20484;-58
2023/05/04 07:01:20;;;;;;;11.90;3.65;;;;;;;10.71;59.95;102539.00;7389534;19;20022;-58
2023/05/04 07:03:48;;;;;;;10.45;4.07;;;;;;;10.78;59.53;102539.59;7390396;19;20374;-58
2023/05/04 07:06:15;;;;;;;12.30;3.53;;;;;;;10.82;59.67;102538.53;7389810;19;20045;-59
2023/05/04 07:08:42;;;;;;;11.07;3.75;;;;;;;10.91;59.50;102530.13;7391250;19;20010;-57
2023/05/04 07:11:09;;;;;;;8.82;3.10;;;;;;;11.01;58.96;102528.78;7391283;19;20025;-58
2023/05/04 07:13:37;;;;;;;12.77;4.20;;;;;;;11.10;59.22;102533.63;7391773;19;20046;-58
2023/05/04 07:16:07;;;;;;;10.82;3.53;;;;;;;11.13;58.75;102525.53;7389679;19;20025;-58
2023/05/04 07:18:35;;;;;;;10.77;3.97;;;;;;;11.20;58.73;102526.13;7390754;19;20085;-58
2023/05/04 07:21:02;;;;;;;12.90;4.10;;;;;;;11.34;58.75;102534.28;7391011;19;20022;-58
2023/05/04 07:23:50;;;;;;;9.27;3.60;;;;;;;11.43;58.47;102527.66;7391203;19;20030;-59
2023/05/04 07:26:18;;;;;;;12.25;3.53;;;;;;;11.51;57.55;102527.28;7387461;19;20018;-59
2023/05/04 07:28:45;;;;;;;10.10;3.10;;;;;;;11.63;58.08;102522.22;7391342;19;20022;-59
2023/05/04 07:31:13;;;;;;;9.90;3.30;;;;;;;11.76;57.92;102516.31;7390873;19;20139;-59
2023/05/04 07:33:40;;;;;;;10.35;3.22;;;;;;;11.86;57.14;102515.78;7388769;19;20022;-59
2023/05/04 07:36:07;;;;;;;11.52;3.13;;;;;;;11.96;57.15;102516.19;7389012;19;20479;-59
2023/05/04 07:38:35;;;;;;;9.20;3.05;;;;;;;12.05;56.88;102509.53;7390254;19;20394;-59
2023/05/04 07:41:02;;;;;;;9.00;2.65;;;;;;;12.10;56.63;102505.72;7390601;19;20396;-58
2023/05/04 07:43:29;;;;;;;10.48;3.03;;;;;;;12.15;56.13;102500.19;7388940;19;20035;-58
2023/05/04 07:45:56;;;;;;;12.38;3.42;;;;;;;12.18;56.11;102505.34;7388677;19;20059;-57
2023/05/04 07:48:23;;;;;;;9.10;3.05;;;;;;;12.25;55.64;102501.41;7389690;19;20037;-58
2023/05/04 07:50:52;;;;;;;11.10;3.58;;;;;;;12.26;55.81;102503.13;7390188;19;20022;-58
2023/05/04 07:53:20;;;;;;;8.20;3.08;;;;;;;12.27;56.15;102502.19;7389958;19;20031;-58
2023/05/04 07:55:47;;;;;;;11.55;3.00;;;;;;;12.35;56.13;102494.66;7388366;19;20463;-58
2023/05/04 07:58:15;;;;;;;10.00;3.00;;;;;;;12.42;56.27;102493.41;7388109;19;20014;-58
2023/05/04 08:00:42;;;;;;;13.70;3.38;;;;;;;12.41;55.84;102490.84;7388914;19;20085;-58
2023/05/04 08:03:09;;;;;;;9.30;3.20;;;;;;;12.40;56.02;102491.75;7395533;19;20021;-59
2023/05/04 08:05:36;;;;;;;10.02;2.92;;;;;;;12.44;55.81;102488.88;7395534;19;20017;-58
2023/05/04 08:08:03;;;;;;;11.80;3.35;;;;;;;12.52;55.97;102485.81;7395559;19;20014;-58
2023/05/04 08:10:35;;;;;;;9.93;3.15;;;;;;;12.61;55.83;102487.09;7397230;19;20112;-59
2023/05/04 08:13:04;;;;;;;12.95;3.40;;;;;;;12.70;56.06;102489.22;7396779;19;20011;-58
2023/05/04 08:15:31;;;;;;;9.80;3.35;;;;;;;12.79;55.65;102482.56;7393780;19;20025;-59
2023/05/04 08:17:58;;;;;;;12.32;3.28;;;;;;;12.91;55.34;102487.22;7397126;19;20371;-59
2023/05/04 08:20:25;;;;;;;13.93;3.30;;;;;;;13.01;54.93;102474.22;7394757;19;20014;-59
2023/05/04 08:22:52;;;;;;;10.13;3.08;;;;;;;13.06;54.50;102474.84;7394709;19;20043;-58
2023/05/04 08:25:21;;;;;;;8.38;2.70;;;;;;;13.11;54.23;102476.28;7395227;19;20017;-58
2023/05/04 08:27:48;;;;;;;7.47;2.67;;;;;;;13.22;53.99;102473.03;7396448;19;20082;-58
2023/05/04 08:30:15;;;;;;;7.68;3.13;;;;;;;13.31;53.22;102469.88;7396050;19;20015;-58
2023/05/04 08:32:42;;;;;;;8.35;2.67;;;;;;;13.37;52.76;102466.84;7396149;19;20014;-57
2023/05/04 08:35:10;;;;;;;8.90;2.78;;;;;;;13.49;52.87;102467.09;7395110;19;20475;-57
2023/05/04 08:37:36;;;;;;;10.77;2.70;;;;;;;13.53;52.19;102469.47;7395745;19;20512;-57
2023/05/04 08:40:04;;;;;;;8.07;2.65;;;;;;;13.60;52.49;102464.66;7394223;19;20018;-58
2023/05/04 08:42:32;;;;;;;10.60;2.60;;;;;;;13.68;52.42;102457.06;7396390;19;20022;-59
2023/05/04 08:44:59;;;;;;;10.07;2.83;;;;;;;13.74;52.13;102464.72;7395194;19;20052;-58
2023/05/04 08:47:28;;;;;;;9.00;2.45;;;;;;;13.77;51.68;102455.66;7396687;19;20360;-59
2023/05/04 08:49:55;;;;;;;8.73;3.05;;;;;;;13.79;51.68;102449.31;7395464;19;20611;-59
2023/05/04 08:52:23;;;;;;;12.32;2.85;;;;;;;13.79;51.82;102446.63;7396205;19;20018;-59
2023/05/04 08:54:53;;;;;;;8.15;2.92;;;;;;;13.79;51.38;102443.97;7394514;19;20022;-58
2023/05/04 08:57:24;;;;;;;9.77;3.10;;;;;;;13.78;51.26;102444.09;7393280;19;20591;-59
2023/05/04 08:59:54;;;;;;;9.75;2.85;;;;;;;13.80;51.49;102444.81;7393356;19;20018;-59
2023/05/04 09:02:23;;;;;;;8.15;2.63;;;;;;;13.88;51.38;102439.88;7395480;19;20024;-59
2023/05/04 09:04:51;;;;;;;9.82;2.90;;;;;;;13.93;51.49;102436.94;7394316;19;20022;-59
2023/05/04 09:07:20;;;;;;;7.30;2.50;;;;;;;13.99;51.10;102436.59;7395587;19;20015;-60
2023/05/04 09:09:49;;;;;;;10.18;2.70;;;;;;;14.00;51.41;102425.81;7393395;19;20023;-59
2023/05/04 09:12:17;;;;;;;10.43;2.50;;;;;;;13.97;51.92;102430.50;7394414;19;20040;-59
2023/05/04 09:14:45;;;;;;;11.63;2.78;;;;;;;13.99;52.36;102424.13;7394255;19;20067;-59
2023/05/04 09:17:16;;;;;;;8.05;2.50;;;;;;;14.02;51.88;102421.28;7394843;19;20530;-59
2023/05/04 09:19:43;;;;;;;10.38;2.60;;;;;;;14.01;51.66;102427.56;7393511;19;20011;-59
2023/05/04 09:22:15;;;;;;;6.57;2.35;;;;;;;14.12;51.48;102424.25;7393208;19;20021;-59
2023/05/04 09:24:44;;;;;;;7.13;2.70;;;;;;;14.17;49.53;102419.47;7394061;19;20022;-59
2023/05/04 09:27:12;;;;;;;7.07;2.30;;;;;;;14.21;48.27;102417.47;7392747;19;20609;-59
2023/05/04 09:29:43;;;;;;;8.70;2.50;;;;;;;14.29;47.72;102413.38;7393844;19;20039;-59
2023/05/04 09:32:13;;;;;;;10.07;2.15;;;;;;;14.24;47.56;102394.16;7394774;19;20086;-59
2023/05/04 09:34:50;;;;;;;9.77;2.35;;;;;;;14.24;47.67;102394.16;7393523;19;20014;-59
2023/05/04 09:37:21;;;;;;;7.30;2.35;;;;;;;14.36;47.85;102396.03;7394820;19;20022;-59
2023/05/04 09:39:52;;;;;;;11.82;2.60;;;;;;;14.44;47.96;102390.22;7392991;19;20010;-59
2023/05/04 09:42:21;;;;;;;7.68;2.50;;;;;;;14.47;47.81;102394.50;7394020;19;20018;-59
2023/05/04 09:44:58;;;;;;;9.63;2.63;;;;;;;14.43;48.04;102391.19;7392769;19;20052;-59
2023/05/04 09:47:35;;;;;;;8.68;2.35;;;;;;;14.42;46.93;102394.78;7394732;19;20021;-60
2023/05/04 09:50:13;;;;;;;6.95;2.50;;;;;;;14.46;47.06;102403.44;7391597;19;20015;-59
2023/05/04 09:52:45;;;;;;;13.55;2.88;;;;;;;14.48;47.34;102399.72;7394112;19;20014;-59
2023/05/04 09:55:15;;;;;;;9.15;2.55;;;;;;;14.58;47.17;102392.91;7392215;19;20019;-59
2023/05/04 09:57:44;;;;;;;7.18;2.15;;;;;;;14.70;47.43;102393.06;7393629;19;20022;-59
2023/05/04 10:00:14;;;;;;;7.57;2.28;;;;;;;14.73;47.09;102388.38;7392120;19;20010;-60
2023/05/04 10:02:45;;;;;;;12.40;2.47;;;;;;;14.84;47.00;102387.66;7393752;19;20047;-60
2023/05/04 10:05:17;;;;;;;9.13;2.60;;;;;;;14.95;47.13;102392.31;7391936;19;20022;-59
2023/05/04 10:07:45;;;;;;;5.72;2.25;;;;;;;14.96;46.51;102386.03;7392140;19;20491;-59
2023/05/04 10:10:13;;;;;;;9.13;2.63;;;;;;;14.99;46.83;102381.31;7392569;19;20122;-60
2023/05/04 10:12:43;;;;;;;7.68;2.42;;;;;;;15.05;46.58;102375.59;7393242;19;20028;-60
2023/05/04 10:15:11;;;;;;;6.80;2.15;;;;;;;15.08;46.41;102377.22;7392057;19;20018;-60
2023/05/04 10:17:44;;;;;;;9.35;2.50;;;;;;;15.11;45.75;102375.19;7391840;19;20015;-60
2023/05/04 10:20:27;;;;;;;7.20;2.17;;;;;;;15.08;46.00;102377.22;7391264;19;20019;-59
2023/05/04 10:22:57;;;;;;;9.48;2.60;;;;;;;15.08;46.00;102374.53;7391961;19;20039;-60
2023/05/04 10:25:42;;;;;;;7.43;2.22;;;;;;;15.21;46.45;102382.56;7390272;19;20480;-62
2023/05/04 10:28:17;;;;;;;8.00;2.45;;;;;;;15.29;45.79;102369.56;7392718;19;20348;-61
2023/05/04 10:30:44;;;;;;;8.23;2.30;;;;;;;15.23;45.94;102361.97;7392268;19;20074;-61
2023/05/04 10:33:11;;;;;;;6.78;2.25;;;;;;;15.26;45.88;102359.97;7392391;19;20015;-61
2023/05/04 10:35:52;;;;;;;6.30;1.83;;;;;;;15.43;45.54;102348.13;7390740;19;20010;-60
2023/05/04 10:38:30;;;;;;;8.50;2.30;;;;;;;15.53;45.06;102353.66;7392607;19;20104;-60
2023/05/04 10:40:57;;;;;;;7.22;2.33;;;;;;;15.40;45.80;102336.78;7390681;19;20122;-60
2023/05/04 10:43:25;;;;;;;9.35;2.33;;;;;;;15.41;45.30;102343.84;7392478;19;20035;-60
2023/05/04 10:45:52;;;;;;;10.18;2.38;;;;;;;15.47;45.65;102340.75;7390172;19;20043;-58
2023/05/04 10:48:19;;;;;;;7.72;2.45;;;;;;;15.63;45.35;102324.53;7390590;19;20535;-58
2023/05/04 10:50:49;;;;;;;9.25;2.53;;;;;;;15.60;45.53;102329.09;7390333;19;20497;-58
2023/05/04 10:53:17;;;;;;;8.23;2.70;;;;;;;15.60;45.09;102323.75;7391570;19;20022;-58
2023/05/04 10:55:47;;;;;;;11.23;2.40;;;;;;;15.47;44.85;102320.25;7390342;19;20118;-59
2023/05/04 10:58:17;;;;;;;8.20;2.10;;;;;;;15.52;45.19;102314.59;7391989;19;20018;-59
2023/05/04 11:00:46;;;;;;;11.55;2.30;;;;;;;15.53;44.77;102309.16;7389706;19;20035;-59
2023/05/04 11:03:14;;;;;;;6.80;2.22;;;;;;;15.61;44.41;102303.28;7391322;19;20010;-59
2023/05/04 11:05:47;;;;;;;9.18;2.53;;;;;;;15.63;44.31;102296.00;7390225;19;20019;-59
2023/05/04 11:08:16;;;;;;;7.37;2.13;;;;;;;15.63;44.44;102300.50;7392035;19;20030;-59
2023/05/04 11:10:44;;;;;;;6.75;2.33;;;;;;;15.66;44.46;102295.81;7391102;19;20019;-60
2023/05/04 11:13:11;;;;;;;8.13;2.45;;;;;;;15.75;45.21;102289.81;7389920;19;20047;-59
2023/05/04 11:15:48;;;;;;;6.22;2.25;;;;;;;15.79;44.80;102290.44;7388296;19;20395;-59
2023/05/04 11:18:26;;;;;;;14.25;2.60;;;;;;;15.79;44.32;102285.97;7389114;19;20035;-59
2023/05/04 11:20:55;;;;;;;9.98;2.25;;;;;;;15.80;43.57;102286.84;7389971;19;20010;-60
2023/05/04 11:23:22;;;;;;;8.13;2.22;;;;;;;15.89;43.68;102288.84;7391482;19;20026;-59
2023/05/04 11:25:49;;;;;;;7.68;2.00;;;;;;;15.95;43.25;102277.72;7389369;19;20018;-59
2023/05/04 11:28:17;;;;;;;8.25;2.25;;;;;;;16.07;43.04;102268.81;7390882;19;20014;-59